Aviation Digital Data Service (ADDS)

Output produced by METARs form (2008 UTC 21 September 2021)
found at http://aviationweather.gov/metar/data/
 
Forecast for: EDDK (KOELN/BONN , DE)
Text: TAF EDDK 211700Z 2118/2224 VRB03KT CAVOK
Forecast period: 1800 UTC 21 September 2021 to 0000 UTC 23 September 2021
Forecast type: FROM: standard forecast or significant change
Winds: variable direction winds at 3 MPH (3 knots; 1.5 m/s)
Visibility: 6 or more miles (10+ km)
Ceiling: unknown
Clouds: missing
Weather: NSW  (no significant weather)